createdAt,value
2023-05-19T00:52:54.323Z,86
2023-05-19T01:32:56.282Z,89
2023-05-19T02:12:57.759Z,91
2023-05-19T02:53:01.507Z,93
2023-05-19T03:13:01.922Z,94
2023-05-19T03:33:03.411Z,95
2023-05-19T03:43:03.546Z,95
2023-05-19T03:53:03.982Z,96
2023-05-19T04:03:04.724Z,95
2023-05-19T04:23:05.513Z,96
2023-05-19T04:33:06.240Z,96
2023-05-19T04:43:07.242Z,96
2023-05-19T04:53:07.410Z,96
2023-05-19T05:03:08.098Z,96
2023-05-19T05:13:10.006Z,95
2023-05-19T05:23:09.640Z,95
2023-05-19T05:43:10.878Z,93
2023-05-19T05:53:11.418Z,92
2023-05-19T06:03:12.214Z,92
2023-05-19T06:13:12.392Z,90
2023-05-19T06:33:13.547Z,86
2023-05-19T06:43:14.147Z,83
2023-05-19T06:53:15.018Z,82
2023-05-19T07:13:16.530Z,79
2023-05-19T07:23:17.419Z,76
2023-05-19T07:33:17.222Z,75
2023-05-19T07:43:17.491Z,72
2023-05-19T07:53:18.139Z,71
2023-05-19T08:03:18.593Z,69
2023-05-19T08:13:19.142Z,70
2023-05-19T08:33:20.417Z,67
2023-05-19T08:53:31.660Z,65
2023-05-19T09:13:22.344Z,62
2023-05-19T09:23:23.326Z,59
2023-05-19T09:33:23.717Z,58
2023-05-19T09:43:24.243Z,57
2023-05-19T10:03:25.622Z,55
2023-05-19T10:13:25.774Z,56
2023-05-19T10:23:26.108Z,57
2023-05-19T10:33:26.960Z,57
2023-05-19T10:43:27.854Z,55
2023-05-19T10:53:28.016Z,55
2023-05-19T11:03:28.976Z,54
2023-05-19T11:13:29.092Z,52
2023-05-19T11:23:29.968Z,54
2023-05-19T11:33:30.038Z,54
2023-05-19T11:43:31.039Z,52
2023-05-19T11:53:33.338Z,51
2023-05-19T12:03:32.445Z,52
2023-05-19T12:23:33.493Z,52
2023-05-19T12:33:35.632Z,50
2023-05-19T12:53:35.174Z,51
2023-05-19T13:03:35.471Z,52
2023-05-19T13:13:36.452Z,52
2023-05-19T13:23:37.181Z,51
2023-05-19T13:33:38.076Z,51
2023-05-19T13:43:38.726Z,51
2023-05-19T13:53:39.370Z,51
2023-05-19T14:03:40.050Z,52
2023-05-19T14:23:41.409Z,52
2023-05-19T17:23:51.049Z,50
2023-05-19T17:43:52.074Z,51
2023-05-19T18:03:53.362Z,52
2023-05-19T18:13:54.029Z,52
2023-05-19T18:23:55.004Z,53
2023-05-19T18:43:55.980Z,54
2023-05-19T19:03:56.928Z,56
2023-05-19T19:54:00.264Z,61
2023-05-19T20:04:01.334Z,62
2023-05-19T20:14:02.116Z,62
2023-05-19T20:24:02.378Z,63
2023-05-19T20:34:02.723Z,64
2023-05-19T20:44:03.070Z,65
2023-05-19T20:54:03.182Z,65
2023-05-19T21:04:03.841Z,66
2023-05-19T21:14:04.629Z,66
2023-05-19T21:24:04.889Z,67
2023-05-19T21:34:05.678Z,67
2023-05-19T21:44:06.481Z,67
2023-05-19T21:54:06.598Z,68
2023-05-19T22:04:07.718Z,68
2023-05-19T22:14:08.180Z,68
2023-05-19T22:34:09.120Z,69
2023-05-19T22:44:10.062Z,69
2023-05-19T22:54:10.279Z,69
2023-05-19T23:14:10.989Z,70
2023-05-19T23:24:11.683Z,70
2023-05-19T23:34:12.257Z,71
2023-05-19T23:44:12.674Z,72
2023-05-19T23:54:13.613Z,73
